Time;durP1;ratioP1;P1;durP2;ratioP2;P2;SDS_P1;SDS_P2;PMS_P1;PMS_P2;Temp;Humidity;BMP_temperature;BMP_pressure;BME280_temperature;BME280_humidity;BME280_pressure;Samples;Min_cycle;Max_cycle;Signal;HPM_P1;HPM_P2
2023/03/26 00:01:25;;;;;;;0.00;0.00;;;7.70;99.90;;;;;;5011760;28;20193;-62
2023/03/26 00:03:53;;;;;;;0.00;0.00;;;7.70;99.90;;;;;;4983258;28;20240;-62
2023/03/26 00:06:24;;;;;;;0.10;0.10;;;7.70;99.90;;;;;;4993082;28;20241;-62
2023/03/26 00:08:50;;;;;;;0.00;0.00;;;7.70;99.90;;;;;;5008468;28;20186;-61
2023/03/26 00:11:18;;;;;;;0.00;0.00;;;7.70;99.90;;;;;;5011961;28;20249;-62
2023/03/26 00:13:45;;;;;;;0.00;0.00;;;7.60;99.90;;;;;;5011606;28;20240;-62
2023/03/26 00:16:13;;;;;;;0.00;0.00;;;7.60;99.90;;;;;;5011703;28;20210;-62
2023/03/26 00:18:41;;;;;;;0.00;0.00;;;7.60;99.90;;;;;;4994514;28;20281;-61
2023/03/26 00:21:09;;;;;;;0.00;0.00;;;7.60;99.90;;;;;;5011965;28;20249;-62
2023/03/26 00:23:35;;;;;;;0.00;0.00;;;7.50;99.90;;;;;;5011364;28;20174;-62
2023/03/26 00:26:02;;;;;;;0.00;0.00;;;7.60;99.90;;;;;;5011657;28;20553;-62
2023/03/26 00:28:28;;;;;;;0.00;0.00;;;7.60;99.90;;;;;;5011639;28;20178;-62
2023/03/26 00:31:02;;;;;;;0.00;0.00;;;7.50;99.90;;;;;;5011585;28;20206;-62
2023/03/26 00:33:30;;;;;;;0.00;0.00;;;7.60;99.90;;;;;;5011477;28;20189;-62
2023/03/26 00:35:57;;;;;;;0.00;0.00;;;7.60;99.90;;;;;;4994002;28;20328;-62
2023/03/26 00:38:24;;;;;;;0.00;0.00;;;7.60;99.90;;;;;;5011191;28;20179;-61
2023/03/26 00:40:51;;;;;;;0.00;0.00;;;7.60;99.90;;;;;;5011639;28;20572;-62
2023/03/26 00:43:21;;;;;;;0.00;0.00;;;7.60;99.90;;;;;;5011118;28;20190;-62
2023/03/26 00:45:49;;;;;;;0.00;0.00;;;7.60;99.90;;;;;;4993619;28;20214;-62
2023/03/26 00:48:16;;;;;;;0.00;0.00;;;7.60;99.90;;;;;;5011286;28;20193;-62
2023/03/26 00:50:44;;;;;;;0.00;0.00;;;7.60;99.90;;;;;;5011482;28;20538;-62
2023/03/26 00:53:13;;;;;;;0.00;0.00;;;7.50;99.90;;;;;;5011267;28;20229;-62
2023/03/26 00:55:40;;;;;;;0.00;0.00;;;7.50;99.90;;;;;;5011140;28;20265;-61
2023/03/26 00:58:09;;;;;;;0.00;0.00;;;7.50;99.90;;;;;;5011253;28;20546;-62
2023/03/26 01:00:38;;;;;;;0.00;0.00;;;7.50;99.90;;;;;;5009642;28;20631;-62
2023/03/26 01:03:05;;;;;;;0.00;0.00;;;7.50;99.90;;;;;;5010788;28;20206;-62
2023/03/26 01:05:33;;;;;;;0.00;0.00;;;7.50;99.90;;;;;;5011113;28;20237;-62
2023/03/26 01:08:13;;;;;;;0.00;0.00;;;7.50;99.90;;;;;;5010900;28;20197;-62
2023/03/26 01:10:40;;;;;;;0.00;0.00;;;7.40;99.90;;;;;;5011386;28;20578;-62
2023/03/26 01:13:06;;;;;;;0.00;0.00;;;7.40;99.90;;;;;;5009957;28;20579;-62
2023/03/26 01:15:36;;;;;;;0.00;0.00;;;7.40;99.90;;;;;;5006121;28;20543;-62
2023/03/26 01:18:08;;;;;;;0.00;0.00;;;7.40;99.90;;;;;;5010866;28;20182;-62
2023/03/26 01:20:45;;;;;;;0.00;0.00;;;7.40;99.90;;;;;;5000545;28;20172;-62
2023/03/26 01:23:18;;;;;;;0.00;0.00;;;7.40;99.90;;;;;;5004192;28;20183;-62
2023/03/26 01:25:49;;;;;;;0.00;0.00;;;7.40;99.90;;;;;;5010826;28;20263;-62
2023/03/26 01:28:17;;;;;;;0.00;0.00;;;7.30;99.90;;;;;;5011074;28;20199;-63
2023/03/26 01:31:08;;;;;;;0.00;0.00;;;7.30;99.90;;;;;;5011136;28;20426;-62
2023/03/26 01:33:57;;;;;;;0.00;0.00;;;7.30;99.90;;;;;;5010957;28;20195;-62
2023/03/26 01:36:36;;;;;;;0.00;0.00;;;7.20;99.90;;;;;;4997273;28;20198;-62
2023/03/26 01:39:17;;;;;;;0.00;0.00;;;7.20;99.90;;;;;;4993472;28;20273;-62
2023/03/26 01:42:11;;;;;;;0.00;0.00;;;7.10;99.90;;;;;;4993320;28;20190;-62
2023/03/26 01:44:52;;;;;;;0.00;0.00;;;7.10;99.90;;;;;;4995155;28;20210;-62
2023/03/26 01:47:20;;;;;;;0.00;0.00;;;7.10;99.90;;;;;;5010831;28;20534;-62
2023/03/26 01:49:45;;;;;;;0.00;0.00;;;7.10;99.90;;;;;;5010862;28;20222;-61
2023/03/26 01:52:15;;;;;;;0.00;0.00;;;7.10;99.90;;;;;;5013983;28;20272;-62
2023/03/26 01:54:41;;;;;;;0.00;0.00;;;7.10;99.90;;;;;;5014394;28;20716;-62
2023/03/26 01:57:49;;;;;;;0.00;0.00;;;7.10;99.90;;;;;;5014502;28;20256;-62
2023/03/26 02:00:28;;;;;;;0.00;0.00;;;7.20;99.90;;;;;;4981678;28;20346;-62
2023/03/26 02:03:07;;;;;;;0.00;0.00;;;7.10;99.90;;;;;;5014429;28;20206;-62
2023/03/26 02:05:40;;;;;;;0.00;0.00;;;7.20;99.90;;;;;;4996269;28;20225;-62
2023/03/26 02:08:30;;;;;;;0.00;0.00;;;7.20;99.90;;;;;;5013942;28;20261;-61
2023/03/26 02:10:58;;;;;;;0.00;0.00;;;7.30;99.90;;;;;;5013724;28;20187;-62
2023/03/26 02:13:25;;;;;;;0.00;0.00;;;7.30;99.90;;;;;;5014144;28;20269;-62
2023/03/26 02:15:56;;;;;;;0.00;0.00;;;7.40;99.90;;;;;;5013790;28;20658;-62
2023/03/26 02:18:23;;;;;;;0.40;0.40;;;7.40;99.90;;;;;;5014254;28;20198;-62
2023/03/26 02:20:51;;;;;;;0.00;0.00;;;7.40;99.90;;;;;;5014037;28;20187;-62
2023/03/26 02:23:18;;;;;;;0.00;0.00;;;7.40;99.90;;;;;;5006864;28;20194;-62
2023/03/26 02:25:44;;;;;;;0.00;0.00;;;7.50;99.90;;;;;;5010142;28;20178;-62
2023/03/26 02:28:09;;;;;;;0.00;0.00;;;7.50;99.90;;;;;;5000798;28;20252;-62
2023/03/26 02:30:35;;;;;;;0.00;0.00;;;7.50;99.90;;;;;;5008900;28;20184;-62
2023/03/26 02:33:00;;;;;;;0.52;0.52;;;7.60;99.90;;;;;;5003896;28;20203;-61
2023/03/26 02:35:26;;;;;;;0.00;0.00;;;7.60;99.90;;;;;;5005867;28;20195;-62
2023/03/26 02:37:51;;;;;;;0.00;0.00;;;7.60;99.90;;;;;;5010529;28;20190;-62
2023/03/26 02:40:19;;;;;;;0.00;0.00;;;7.60;99.90;;;;;;5013477;28;20653;-62
2023/03/26 02:42:46;;;;;;;0.00;0.00;;;7.60;99.90;;;;;;5013555;28;20785;-61
2023/03/26 02:45:11;;;;;;;0.32;0.32;;;7.60;99.90;;;;;;5012857;28;20182;-62
2023/03/26 02:47:37;;;;;;;0.03;0.03;;;7.60;99.90;;;;;;5013701;28;20687;-61
2023/03/26 02:50:03;;;;;;;0.00;0.00;;;7.60;99.90;;;;;;5013098;28;20175;-61
2023/03/26 02:52:29;;;;;;;0.00;0.00;;;7.60;99.90;;;;;;5004539;28;20215;-62
2023/03/26 02:54:55;;;;;;;0.00;0.00;;;7.70;99.90;;;;;;5009988;28;20707;-62
2023/03/26 02:57:21;;;;;;;0.00;0.00;;;7.70;99.90;;;;;;5012281;28;20245;-62
2023/03/26 02:59:49;;;;;;;0.28;0.28;;;7.60;99.90;;;;;;5008393;28;20194;-60
2023/03/26 03:02:15;;;;;;;0.00;0.00;;;7.60;99.90;;;;;;5002440;28;20175;-60
2023/03/26 03:04:41;;;;;;;0.00;0.00;;;7.60;99.90;;;;;;4993515;28;20190;-60
2023/03/26 03:07:06;;;;;;;0.00;0.00;;;7.60;99.90;;;;;;5010099;28;20226;-60
2023/03/26 03:09:33;;;;;;;0.00;0.00;;;7.60;99.90;;;;;;5013455;28;20657;-60
2023/03/26 03:11:59;;;;;;;0.00;0.00;;;7.60;99.90;;;;;;5013114;28;20221;-60
2023/03/26 03:14:25;;;;;;;0.00;0.00;;;7.60;99.90;;;;;;5013072;28;20182;-60
2023/03/26 03:16:52;;;;;;;0.00;0.00;;;7.60;99.90;;;;;;5013218;28;20194;-60
2023/03/26 03:19:18;;;;;;;0.00;0.00;;;7.60;99.90;;;;;;4995310;28;20179;-60
2023/03/26 03:21:43;;;;;;;0.00;0.00;;;7.60;99.90;;;;;;5013242;28;20290;-60
2023/03/26 03:24:10;;;;;;;0.00;0.00;;;7.60;99.90;;;;;;4995437;28;20230;-60
2023/03/26 03:26:36;;;;;;;0.00;0.00;;;7.60;99.90;;;;;;5013039;28;20528;-60
2023/03/26 03:29:02;;;;;;;0.00;0.00;;;7.60;99.90;;;;;;4995259;28;20175;-60
2023/03/26 03:31:28;;;;;;;0.05;0.05;;;7.50;99.90;;;;;;4978978;28;20210;-60
2023/03/26 03:33:53;;;;;;;0.00;0.00;;;7.60;99.90;;;;;;5012801;28;20228;-60
2023/03/26 03:36:21;;;;;;;0.00;0.00;;;7.60;99.90;;;;;;5012527;28;20167;-60
2023/03/26 03:38:48;;;;;;;0.00;0.00;;;7.60;99.90;;;;;;5000314;28;20186;-60
2023/03/26 03:41:14;;;;;;;0.00;0.00;;;7.70;99.90;;;;;;4981295;28;20545;-60
2023/03/26 03:43:40;;;;;;;0.05;0.05;;;7.70;99.90;;;;;;4997508;28;20218;-60
2023/03/26 03:46:05;;;;;;;0.00;0.00;;;7.70;99.90;;;;;;5009118;28;20265;-60
2023/03/26 03:48:32;;;;;;;0.00;0.00;;;7.80;99.90;;;;;;5012206;28;20186;-60
2023/03/26 03:50:57;;;;;;;0.00;0.00;;;7.70;99.90;;;;;;5012036;28;20191;-60
2023/03/26 03:53:24;;;;;;;2.92;0.95;;;7.70;99.90;;;;;;5011695;28;20673;-60
2023/03/26 03:55:53;;;;;;;0.00;0.00;;;7.70;99.90;;;;;;5006696;28;20183;-60
2023/03/26 03:58:20;;;;;;;0.00;0.00;;;7.80;99.90;;;;;;4992627;28;20172;-60
2023/03/26 04:00:52;;;;;;;0.00;0.00;;;7.70;99.90;;;;;;5006995;28;20179;-60
2023/03/26 04:03:19;;;;;;;0.00;0.00;;;7.70;99.90;;;;;;5011599;28;20186;-60
2023/03/26 04:05:48;;;;;;;0.08;0.08;;;7.70;99.90;;;;;;5011706;28;20226;-60
2023/03/26 04:08:15;;;;;;;0.00;0.00;;;7.70;99.90;;;;;;5009816;28;20202;-60
2023/03/26 04:10:42;;;;;;;0.00;0.00;;;7.70;99.90;;;;;;4994192;28;20273;-60
2023/03/26 04:13:09;;;;;;;0.00;0.00;;;7.70;99.90;;;;;;5011361;28;20207;-60
2023/03/26 04:15:35;;;;;;;0.00;0.00;;;7.70;99.90;;;;;;5012347;28;20228;-61
2023/03/26 04:18:01;;;;;;;0.00;0.00;;;7.70;99.90;;;;;;5011946;28;20175;-60
2023/03/26 04:20:26;;;;;;;0.00;0.00;;;7.70;99.90;;;;;;5011851;28;20638;-60
2023/03/26 04:22:52;;;;;;;0.00;0.00;;;7.70;99.90;;;;;;5010253;28;20183;-60
2023/03/26 04:25:18;;;;;;;0.00;0.00;;;7.70;99.90;;;;;;5011871;28;20187;-60
2023/03/26 04:27:45;;;;;;;0.00;0.00;;;7.70;99.90;;;;;;5012116;28;20218;-60
2023/03/26 04:30:19;;;;;;;0.00;0.00;;;7.70;99.90;;;;;;5011826;28;20234;-60
2023/03/26 04:32:44;;;;;;;0.00;0.00;;;7.70;99.90;;;;;;5011918;28;20206;-60
2023/03/26 04:35:16;;;;;;;0.00;0.00;;;7.70;99.90;;;;;;4994496;28;20221;-60
2023/03/26 04:37:43;;;;;;;0.00;0.00;;;7.70;99.90;;;;;;5011742;28;20182;-60
2023/03/26 04:40:17;;;;;;;0.00;0.00;;;7.70;99.90;;;;;;5011709;28;20261;-60
2023/03/26 04:42:45;;;;;;;0.00;0.00;;;7.70;99.90;;;;;;5011774;28;20175;-60
2023/03/26 04:45:13;;;;;;;0.00;0.00;;;7.70;99.90;;;;;;5011573;28;20194;-60
2023/03/26 04:47:39;;;;;;;0.00;0.00;;;7.60;99.90;;;;;;5011566;28;20183;-60
2023/03/26 04:50:07;;;;;;;0.00;0.00;;;7.60;99.90;;;;;;5011698;28;20185;-60
2023/03/26 04:52:33;;;;;;;0.00;0.00;;;7.60;99.90;;;;;;5001254;28;20215;-60
2023/03/26 04:54:59;;;;;;;0.00;0.00;;;7.70;99.90;;;;;;4990059;28;20542;-60
2023/03/26 04:57:33;;;;;;;0.08;0.08;;;7.70;99.90;;;;;;5001977;28;20231;-60
2023/03/26 04:59:59;;;;;;;0.00;0.00;;;7.70;99.90;;;;;;5011268;28;20205;-60
2023/03/26 05:02:25;;;;;;;0.10;0.10;;;7.70;99.90;;;;;;5011481;28;20653;-60
2023/03/26 05:04:51;;;;;;;0.00;0.00;;;7.70;99.90;;;;;;5011600;28;20163;-60
2023/03/26 05:07:20;;;;;;;0.00;0.00;;;7.70;99.90;;;;;;5001546;28;20231;-60
2023/03/26 05:09:45;;;;;;;0.00;0.00;;;7.70;99.90;;;;;;4991978;28;20665;-60
2023/03/26 05:12:11;;;;;;;0.00;0.00;;;7.70;99.90;;;;;;5006674;28;20325;-60
2023/03/26 05:14:36;;;;;;;0.00;0.00;;;7.70;99.90;;;;;;4993498;28;20180;-60
2023/03/26 05:17:04;;;;;;;0.00;0.00;;;7.70;99.90;;;;;;4974359;28;20207;-60
2023/03/26 05:19:31;;;;;;;0.00;0.00;;;7.70;99.90;;;;;;4991751;28;20539;-60
2023/03/26 05:21:56;;;;;;;0.00;0.00;;;7.70;99.90;;;;;;4991798;28;20606;-60
2023/03/26 05:24:23;;;;;;;0.00;0.00;;;7.70;99.90;;;;;;4992417;28;20287;-60
2023/03/26 05:26:49;;;;;;;0.00;0.00;;;7.60;99.90;;;;;;4995679;28;20701;-60
2023/03/26 05:29:16;;;;;;;0.00;0.00;;;7.60;99.90;;;;;;4995746;28;20186;-60
2023/03/26 05:31:43;;;;;;;0.10;0.10;;;7.60;99.90;;;;;;4995368;28;20207;-60
2023/03/26 05:34:09;;;;;;;0.00;0.00;;;7.60;99.90;;;;;;4995449;28;20187;-60
2023/03/26 05:36:34;;;;;;;0.00;0.00;;;7.60;99.90;;;;;;4995411;28;20278;-60
2023/03/26 05:39:00;;;;;;;0.00;0.00;;;7.60;99.90;;;;;;4995332;28;20237;-60
2023/03/26 05:41:25;;;;;;;0.00;0.00;;;7.70;99.90;;;;;;4995197;28;20187;-60
2023/03/26 05:43:51;;;;;;;0.00;0.00;;;7.70;99.90;;;;;;4995211;28;20202;-60
2023/03/26 05:46:19;;;;;;;0.00;0.00;;;7.80;99.90;;;;;;4995200;28;20176;-60
2023/03/26 05:48:44;;;;;;;0.00;0.00;;;7.80;99.90;;;;;;4995195;28;20175;-60
2023/03/26 05:51:11;;;;;;;0.00;0.00;;;7.90;99.90;;;;;;4995386;28;20174;-60
2023/03/26 05:53:36;;;;;;;0.00;0.00;;;7.90;99.90;;;;;;5014433;28;20170;-60
2023/03/26 05:56:03;;;;;;;0.00;0.00;;;8.00;99.90;;;;;;5014393;28;20174;-60
2023/03/26 05:58:31;;;;;;;0.32;0.32;;;8.00;99.90;;;;;;4997680;28;20237;-60
2023/03/26 06:01:08;;;;;;;0.00;0.00;;;8.10;99.90;;;;;;5009389;28;20233;-60
2023/03/26 06:03:37;;;;;;;0.00;0.00;;;8.20;99.90;;;;;;5014287;28;20186;-60
2023/03/26 06:06:06;;;;;;;0.00;0.00;;;8.20;99.90;;;;;;4997363;28;20361;-60
2023/03/26 06:08:32;;;;;;;0.00;0.00;;;8.30;99.90;;;;;;4999197;28;20183;-60
2023/03/26 06:10:59;;;;;;;0.00;0.00;;;8.30;99.90;;;;;;5013564;28;20190;-60
2023/03/26 06:13:24;;;;;;;0.00;0.00;;;8.30;99.90;;;;;;5001382;28;20223;-60
2023/03/26 06:15:50;;;;;;;0.00;0.00;;;8.40;99.90;;;;;;4997091;28;20222;-60
2023/03/26 06:18:16;;;;;;;0.00;0.00;;;8.40;99.90;;;;;;5002662;28;20180;-60
2023/03/26 06:20:42;;;;;;;0.00;0.00;;;8.40;99.90;;;;;;4997925;28;20174;-60
2023/03/26 06:23:08;;;;;;;0.00;0.00;;;8.40;99.90;;;;;;5013544;28;20175;-60
2023/03/26 06:25:33;;;;;;;0.00;0.00;;;8.50;99.90;;;;;;5013237;28;20218;-60
2023/03/26 06:27:59;;;;;;;0.00;0.00;;;8.50;99.90;;;;;;5004535;28;20189;-60
2023/03/26 06:30:24;;;;;;;0.00;0.00;;;8.50;99.90;;;;;;5013374;28;20214;-62
2023/03/26 06:32:50;;;;;;;0.00;0.00;;;8.60;99.90;;;;;;5008700;28;20416;-60
2023/03/26 06:35:15;;;;;;;0.00;0.00;;;8.60;99.90;;;;;;4993848;28;20199;-60
2023/03/26 06:37:41;;;;;;;0.00;0.00;;;8.60;99.90;;;;;;5004251;28;20222;-60
2023/03/26 06:40:07;;;;;;;0.08;0.08;;;8.70;99.90;;;;;;5013553;28;20244;-60
2023/03/26 06:42:33;;;;;;;0.00;0.00;;;8.70;99.90;;;;;;4997994;28;20175;-59
2023/03/26 06:44:58;;;;;;;0.00;0.00;;;8.70;99.90;;;;;;5002432;28;20485;-59
2023/03/26 06:47:24;;;;;;;0.00;0.00;;;8.70;99.90;;;;;;4999369;28;20198;-60
2023/03/26 06:49:49;;;;;;;0.00;0.00;;;8.80;99.90;;;;;;4995467;28;20179;-60
2023/03/26 06:52:15;;;;;;;0.00;0.00;;;8.70;99.90;;;;;;5013096;28;20222;-61
2023/03/26 06:54:40;;;;;;;0.00;0.00;;;8.70;99.90;;;;;;4996776;28;20175;-59
2023/03/26 06:57:06;;;;;;;0.00;0.00;;;8.70;99.90;;;;;;4993777;28;20191;-58
2023/03/26 06:59:31;;;;;;;0.00;0.00;;;8.80;99.90;;;;;;4998731;28;20175;-58
2023/03/26 07:01:57;;;;;;;0.00;0.00;;;8.70;99.90;;;;;;5012986;28;20186;-59
2023/03/26 07:04:22;;;;;;;0.00;0.00;;;8.70;99.90;;;;;;5012322;28;20171;-61
2023/03/26 07:06:48;;;;;;;0.00;0.00;;;8.70;99.90;;;;;;5010106;28;20218;-61
2023/03/26 07:09:14;;;;;;;0.00;0.00;;;8.70;99.90;;;;;;5012994;28;20274;-60
2023/03/26 07:11:39;;;;;;;0.00;0.00;;;8.70;99.90;;;;;;5007077;28;20199;-61
2023/03/26 07:14:05;;;;;;;0.00;0.00;;;8.70;99.90;;;;;;4993368;28;20183;-59
2023/03/26 07:16:30;;;;;;;0.00;0.00;;;8.70;99.90;;;;;;4997732;28;20225;-59
2023/03/26 07:18:56;;;;;;;0.00;0.00;;;8.70;99.90;;;;;;5003470;28;20196;-58
2023/03/26 07:21:22;;;;;;;0.00;0.00;;;8.70;99.90;;;;;;5004183;28;20685;-59
2023/03/26 07:23:48;;;;;;;0.00;0.00;;;8.70;99.90;;;;;;4993204;28;20546;-58
2023/03/26 07:26:41;;;;;;;0.00;0.00;;;8.70;99.90;;;;;;4984983;28;20175;-58
2023/03/26 07:29:31;;;;;;;0.00;0.00;;;8.70;99.90;;;;;;4993421;28;20180;-58
2023/03/26 07:32:21;;;;;;;0.00;0.00;;;8.70;99.90;;;;;;4994904;28;20219;-59
2023/03/26 07:34:52;;;;;;;0.00;0.00;;;8.70;99.90;;;;;;5003132;28;20190;-59
2023/03/26 07:37:48;;;;;;;0.00;0.00;;;8.70;99.90;;;;;;5010036;28;20191;-59
2023/03/26 07:40:36;;;;;;;0.00;0.00;;;8.70;99.90;;;;;;4994405;28;20183;-59
2023/03/26 07:43:07;;;;;;;0.00;0.00;;;8.60;99.90;;;;;;4980860;28;20699;-58
2023/03/26 07:45:39;;;;;;;0.00;0.00;;;8.60;99.90;;;;;;5004115;28;20537;-59
2023/03/26 07:48:20;;;;;;;0.00;0.00;;;8.60;99.90;;;;;;4992133;28;20623;-59
2023/03/26 07:50:47;;;;;;;0.00;0.00;;;8.60;99.90;;;;;;4997764;28;20191;-59
2023/03/26 07:53:13;;;;;;;0.00;0.00;;;8.60;99.90;;;;;;4993939;28;20749;-59
2023/03/26 07:56:05;;;;;;;0.00;0.00;;;8.70;99.90;;;;;;5008862;28;20183;-59
2023/03/26 07:59:05;;;;;;;0.20;0.10;;;8.70;99.90;;;;;;5001487;28;20191;-59
2023/03/26 08:01:55;;;;;;;0.00;0.00;;;8.60;99.90;;;;;;4992724;28;20685;-59
2023/03/26 08:04:33;;;;;;;0.00;0.00;;;8.60;99.90;;;;;;4992599;28;20172;-60
2023/03/26 08:07:04;;;;;;;0.00;0.00;;;8.60;99.90;;;;;;4999354;28;20313;-59
2023/03/26 08:10:05;;;;;;;0.00;0.00;;;8.70;99.90;;;;;;5012137;28;20179;-59
2023/03/26 08:12:51;;;;;;;0.00;0.00;;;8.80;99.90;;;;;;5011989;28;20727;-59
2023/03/26 08:15:37;;;;;;;0.00;0.00;;;8.90;99.90;;;;;;5012139;28;20265;-60
2023/03/26 08:18:27;;;;;;;0.00;0.00;;;9.00;99.90;;;;;;5012166;28;20182;-59
2023/03/26 08:21:05;;;;;;;0.10;0.10;;;9.00;99.90;;;;;;5012045;28;20585;-59
2023/03/26 08:23:49;;;;;;;0.00;0.00;;;9.00;99.90;;;;;;5012006;28;20189;-59
2023/03/26 08:26:34;;;;;;;0.00;0.00;;;9.10;99.90;;;;;;5011874;28;20190;-60
2023/03/26 08:29:22;;;;;;;0.00;0.00;;;9.20;99.90;;;;;;5011930;28;20257;-60
2023/03/26 08:31:49;;;;;;;0.00;0.00;;;9.20;99.90;;;;;;5011878;28;20211;-60
2023/03/26 08:34:14;;;;;;;0.00;0.00;;;9.20;99.90;;;;;;5011715;28;20175;-60
2023/03/26 08:36:40;;;;;;;0.00;0.00;;;9.30;99.90;;;;;;5011830;28;20196;-59
2023/03/26 08:39:06;;;;;;;0.00;0.00;;;9.30;99.90;;;;;;5011870;28;20183;-59
2023/03/26 08:42:08;;;;;;;0.00;0.00;;;9.30;99.90;;;;;;5011574;28;20744;-59
2023/03/26 08:45:09;;;;;;;0.00;0.00;;;9.30;99.90;;;;;;4994071;28;20207;-60
2023/03/26 08:47:54;;;;;;;0.00;0.00;;;9.30;99.90;;;;;;5011743;28;20543;-60
2023/03/26 08:50:52;;;;;;;0.00;0.00;;;9.20;99.90;;;;;;5011605;28;20182;-59
2023/03/26 08:53:36;;;;;;;0.00;0.00;;;9.20;99.90;;;;;;5011630;28;20218;-60
2023/03/26 08:56:15;;;;;;;0.00;0.00;;;9.30;99.90;;;;;;5011566;28;20178;-59
2023/03/26 08:59:10;;;;;;;0.00;0.00;;;9.30;99.90;;;;;;5011407;28;20182;-59
2023/03/26 09:02:16;;;;;;;0.00;0.00;;;9.20;99.90;;;;;;4996087;28;20535;-59
2023/03/26 09:04:51;;;;;;;0.00;0.00;;;9.20;99.90;;;;;;4995893;28;20171;-60
2023/03/26 09:07:47;;;;;;;0.10;0.10;;;9.10;99.90;;;;;;5005249;28;20242;-60
2023/03/26 09:10:43;;;;;;;0.00;0.00;;;9.00;99.90;;;;;;4997990;28;20261;-60
2023/03/26 09:13:42;;;;;;;0.00;0.00;;;9.00;99.90;;;;;;5015419;28;20738;-59
2023/03/26 09:16:29;;;;;;;0.00;0.00;;;9.00;99.90;;;;;;5015726;28;20548;-60
2023/03/26 09:19:23;;;;;;;0.00;0.00;;;9.10;99.90;;;;;;5014969;28;20229;-60
2023/03/26 09:21:51;;;;;;;0.00;0.00;;;9.30;99.90;;;;;;5006516;28;20198;-60
2023/03/26 09:24:31;;;;;;;0.00;0.00;;;10.20;99.90;;;;;;4995642;28;20218;-60
2023/03/26 09:27:15;;;;;;;0.00;0.00;;;10.90;99.90;;;;;;5011839;28;20189;-61
2023/03/26 09:30:26;;;;;;;0.00;0.00;;;11.20;99.90;;;;;;5015410;28;20174;-60
2023/03/26 09:33:18;;;;;;;0.00;0.00;;;11.30;99.90;;;;;;5015204;28;20237;-60
2023/03/26 09:36:31;;;;;;;0.00;0.00;;;11.10;99.90;;;;;;5014532;28;20190;-60
2023/03/26 09:39:08;;;;;;;0.00;0.00;;;11.00;99.90;;;;;;5011579;28;20230;-60
2023/03/26 09:41:43;;;;;;;0.00;0.00;;;10.90;99.90;;;;;;5010416;28;20240;-61
2023/03/26 09:44:26;;;;;;;0.00;0.00;;;10.70;99.90;;;;;;4995647;28;20179;-61
2023/03/26 09:47:18;;;;;;;0.00;0.00;;;10.50;99.90;;;;;;5004161;28;20182;-60
2023/03/26 09:50:03;;;;;;;0.00;0.00;;;10.20;99.90;;;;;;5002999;28;20191;-60
2023/03/26 09:52:45;;;;;;;0.00;0.00;;;9.90;99.90;;;;;;4997213;28;20222;-60
2023/03/26 09:55:35;;;;;;;0.00;0.00;;;9.70;99.90;;;;;;5014970;28;20703;-60
2023/03/26 09:58:29;;;;;;;0.00;0.00;;;9.60;99.90;;;;;;5014525;28;20206;-60
2023/03/26 10:01:15;;;;;;;0.00;0.00;;;9.60;99.90;;;;;;5010792;28;20187;-62
2023/03/26 10:04:05;;;;;;;0.05;0.05;;;9.50;99.90;;;;;;5014727;28;20179;-62
2023/03/26 10:06:47;;;;;;;0.00;0.00;;;9.60;99.90;;;;;;5014389;28;20230;-62
2023/03/26 10:09:38;;;;;;;0.00;0.00;;;9.80;99.90;;;;;;5014518;28;20166;-62
2023/03/26 10:12:08;;;;;;;0.00;0.00;;;10.10;99.90;;;;;;5013346;28;20217;-62
2023/03/26 10:15:09;;;;;;;0.00;0.00;;;10.30;99.90;;;;;;5014399;28;20175;-61
2023/03/26 10:18:18;;;;;;;0.00;0.00;;;10.40;99.90;;;;;;5000651;28;20201;-62
2023/03/26 10:21:21;;;;;;;0.00;0.00;;;10.60;99.90;;;;;;5014474;28;20167;-62
2023/03/26 10:23:59;;;;;;;0.00;0.00;;;10.60;99.90;;;;;;4922421;29;20762;-63
2023/03/26 10:26:27;;;;;;;0.00;0.00;;;10.60;99.90;;;;;;4930442;29;20219;-62
2023/03/26 10:29:03;;;;;;;0.30;0.30;;;10.70;99.90;;;;;;4960012;28;20191;-63
2023/03/26 10:31:51;;;;;;;0.00;0.00;;;10.70;99.90;;;;;;4994363;28;20705;-63
2023/03/26 10:34:45;;;;;;;0.00;0.00;;;10.80;99.90;;;;;;5012282;28;20194;-63
2023/03/26 10:37:16;;;;;;;0.00;0.00;;;11.30;99.90;;;;;;4998740;28;20183;-63
2023/03/26 10:40:03;;;;;;;0.00;0.00;;;11.90;99.90;;;;;;5013700;28;20290;-63
2023/03/26 10:42:53;;;;;;;0.05;0.05;;;12.60;99.90;;;;;;5003131;28;20218;-63
2023/03/26 10:45:44;;;;;;;0.10;0.10;;;13.10;99.90;;;;;;4976643;28;20186;-63
2023/03/26 10:48:31;;;;;;;0.00;0.00;;;13.20;99.90;;;;;;4994167;28;20258;-63
2023/03/26 10:51:09;;;;;;;0.00;0.00;;;13.30;99.90;;;;;;4994241;28;20168;-63
2023/03/26 10:53:49;;;;;;;0.00;0.00;;;13.10;99.90;;;;;;4979063;28;20298;-64
2023/03/26 10:56:27;;;;;;;0.00;0.00;;;13.00;99.90;;;;;;4987550;28;20201;-64
2023/03/26 10:58:54;;;;;;;0.00;0.00;;;12.80;99.90;;;;;;5004472;28;20210;-63
2023/03/26 11:01:19;;;;;;;0.03;0.03;;;12.90;99.90;;;;;;5013015;28;20186;-64
2023/03/26 11:03:53;;;;;;;0.00;0.00;;;12.80;99.90;;;;;;5013224;28;20660;-65
2023/03/26 11:06:43;;;;;;;0.00;0.00;;;13.10;99.90;;;;;;4995344;28;20223;-69
2023/03/26 11:09:25;;;;;;;0.00;0.00;;;13.60;99.90;;;;;;5013441;28;20573;-62
2023/03/26 11:12:11;;;;;;;0.00;0.00;;;14.00;99.90;;;;;;5013359;28;20600;-64
2023/03/26 11:14:57;;;;;;;0.00;0.00;;;14.20;99.90;;;;;;5013355;28;20170;-64
2023/03/26 11:17:46;;;;;;;0.00;0.00;;;14.40;99.90;;;;;;5013328;28;20178;-64
2023/03/26 11:20:19;;;;;;;0.00;0.00;;;14.50;99.90;;;;;;4985859;28;20190;-63
2023/03/26 11:22:56;;;;;;;0.00;0.00;;;14.40;98.80;;;;;;5005005;28;20184;-64
2023/03/26 11:25:43;;;;;;;0.00;0.00;;;14.50;98.70;;;;;;5004375;28;20205;-64
2023/03/26 11:28:40;;;;;;;0.00;0.00;;;14.80;98.00;;;;;;4976224;28;20254;-64
2023/03/26 11:31:16;;;;;;;0.00;0.00;;;15.00;97.50;;;;;;4998634;28;20179;-64
2023/03/26 11:33:50;;;;;;;0.00;0.00;;;15.00;94.70;;;;;;4993556;28;20282;-64
2023/03/26 11:36:21;;;;;;;0.00;0.00;;;14.80;95.00;;;;;;4993380;28;20511;-64
2023/03/26 11:38:49;;;;;;;0.00;0.00;;;14.70;92.20;;;;;;4993515;28;20183;-64
2023/03/26 11:41:24;;;;;;;0.00;0.00;;;14.80;92.10;;;;;;4993219;28;20179;-64
2023/03/26 11:43:55;;;;;;;0.00;0.00;;;15.10;92.20;;;;;;5010204;28;20189;-64
2023/03/26 11:46:23;;;;;;;0.00;0.00;;;15.20;89.50;;;;;;5012616;28;20182;-64
2023/03/26 11:48:56;;;;;;;0.00;0.00;;;15.30;88.30;;;;;;5012860;28;20186;-64
2023/03/26 11:51:34;;;;;;;0.00;0.00;;;15.20;85.70;;;;;;5012475;28;20178;-64
2023/03/26 11:54:06;;;;;;;0.00;0.00;;;15.30;85.60;;;;;;5012657;28;20178;-64
2023/03/26 11:56:56;;;;;;;0.00;0.00;;;15.30;86.10;;;;;;5012561;28;20629;-64
2023/03/26 11:59:31;;;;;;;0.00;0.00;;;15.20;85.80;;;;;;4996870;28;20664;-64
2023/03/26 12:02:03;;;;;;;0.00;0.00;;;15.20;88.10;;;;;;5012597;28;20277;-64
2023/03/26 12:04:42;;;;;;;0.00;0.00;;;15.00;86.10;;;;;;5012806;28;20182;-64
2023/03/26 12:07:16;;;;;;;0.00;0.00;;;14.70;85.40;;;;;;5012352;28;20224;-64
2023/03/26 12:09:52;;;;;;;0.00;0.00;;;14.80;88.90;;;;;;5012479;28;20174;-64
2023/03/26 12:12:19;;;;;;;0.00;0.00;;;14.90;89.10;;;;;;4996969;28;20231;-64
2023/03/26 12:14:45;;;;;;;0.00;0.00;;;15.00;89.70;;;;;;4985334;28;20567;-62
2023/03/26 12:17:23;;;;;;;0.00;0.00;;;15.20;89.70;;;;;;5013852;28;20185;-62
2023/03/26 12:19:48;;;;;;;0.00;0.00;;;15.40;89.30;;;;;;5024764;28;20216;-62
2023/03/26 12:22:31;;;;;;;0.00;0.00;;;15.60;88.80;;;;;;5031809;28;20206;-62
2023/03/26 12:25:15;;;;;;;0.00;0.00;;;15.40;85.10;;;;;;5031980;28;20181;-62
2023/03/26 12:27:46;;;;;;;0.08;0.08;;;15.40;83.90;;;;;;5013971;28;20212;-62
2023/03/26 12:30:19;;;;;;;0.00;0.00;;;15.20;82.70;;;;;;5026230;28;20177;-62
2023/03/26 12:32:47;;;;;;;0.00;0.00;;;14.80;80.70;;;;;;5011790;28;20684;-62
2023/03/26 12:35:19;;;;;;;0.00;0.00;;;14.60;80.60;;;;;;5011207;28;20221;-62
2023/03/26 12:37:46;;;;;;;0.00;0.00;;;14.30;80.90;;;;;;5009680;28;20258;-62
2023/03/26 12:40:23;;;;;;;0.00;0.00;;;14.00;81.90;;;;;;5010116;28;20306;-62
2023/03/26 12:42:58;;;;;;;0.00;0.00;;;14.00;82.60;;;;;;5005325;28;20573;-62
2023/03/26 12:45:51;;;;;;;0.00;0.00;;;14.10;82.20;;;;;;4992109;28;20626;-63
2023/03/26 12:48:17;;;;;;;0.28;0.28;;;14.20;83.30;;;;;;4995639;28;20411;-64
2023/03/26 12:51:05;;;;;;;0.00;0.00;;;14.30;84.10;;;;;;5012319;28;20233;-64
2023/03/26 12:53:43;;;;;;;0.00;0.00;;;14.40;83.80;;;;;;4991949;28;20238;-61
2023/03/26 12:56:16;;;;;;;0.00;0.00;;;14.40;82.50;;;;;;5004940;28;20202;-60
2023/03/26 12:59:05;;;;;;;0.00;0.00;;;14.40;82.50;;;;;;5008450;28;20170;-59
2023/03/26 13:01:57;;;;;;;0.00;0.00;;;14.60;82.60;;;;;;5004930;28;20657;-60
2023/03/26 13:04:51;;;;;;;0.00;0.00;;;14.90;83.80;;;;;;5010886;28;20182;-60
2023/03/26 13:07:53;;;;;;;0.00;0.00;;;15.40;82.10;;;;;;5001211;28;20318;-60
2023/03/26 13:10:32;;;;;;;0.00;0.00;;;15.40;78.60;;;;;;4991191;28;20189;-60
2023/03/26 13:13:35;;;;;;;0.00;0.00;;;15.30;79.80;;;;;;4998867;28;20214;-60
2023/03/26 13:16:27;;;;;;;0.00;0.00;;;14.90;74.90;;;;;;5010917;28;20211;-61
2023/03/26 13:19:02;;;;;;;0.00;0.00;;;14.70;76.40;;;;;;4975809;28;20187;-61
2023/03/26 13:21:53;;;;;;;0.00;0.00;;;14.60;77.00;;;;;;5009517;28;20182;-61
2023/03/26 13:24:26;;;;;;;0.00;0.00;;;14.70;77.90;;;;;;5002433;28;20179;-59
2023/03/26 13:27:15;;;;;;;0.00;0.00;;;14.70;77.10;;;;;;5007276;28;20780;-59
2023/03/26 13:29:41;;;;;;;0.10;0.10;;;14.70;77.90;;;;;;5000777;28;20672;-61
2023/03/26 13:32:44;;;;;;;0.00;0.00;;;14.90;79.50;;;;;;5010764;28;20214;-61